sensor_id;sensor_type;location;lat;lon;timestamp;temperature;humidity
65207;SHT31;58477;48.072;11.970;2022-08-11T00:00:03;17.10;61.73
65207;SHT31;58477;48.072;11.970;2022-08-11T00:02:39;17.08;61.88
65207;SHT31;58477;48.072;11.970;2022-08-11T00:05:10;16.95;62.21
65207;SHT31;58477;48.072;11.970;2022-08-11T00:07:52;16.94;62.23
65207;SHT31;58477;48.072;11.970;2022-08-11T00:10:22;16.94;62.31
65207;SHT31;58477;48.072;11.970;2022-08-11T00:12:55;16.76;62.76
65207;SHT31;58477;48.072;11.970;2022-08-11T00:15:25;16.81;62.75
65207;SHT31;58477;48.072;11.970;2022-08-11T00:17:58;16.70;63.07
65207;SHT31;58477;48.072;11.970;2022-08-11T00:20:31;16.66;63.22
65207;SHT31;58477;48.072;11.970;2022-08-11T00:23:08;16.59;63.35
65207;SHT31;58477;48.072;11.970;2022-08-11T00:25:39;16.64;63.18
65207;SHT31;58477;48.072;11.970;2022-08-11T00:28:31;16.66;63.14
65207;SHT31;58477;48.072;11.970;2022-08-11T00:31:01;16.59;63.44
65207;SHT31;58477;48.072;11.970;2022-08-11T00:33:39;16.55;63.67
65207;SHT31;58477;48.072;11.970;2022-08-11T00:36:05;16.59;63.49
65207;SHT31;58477;48.072;11.970;2022-08-11T00:38:35;16.57;63.45
65207;SHT31;58477;48.072;11.970;2022-08-11T00:52:24;16.40;64.35
65207;SHT31;58477;48.072;11.970;2022-08-11T00:58:04;16.34;64.45
65207;SHT31;58477;48.072;11.970;2022-08-11T01:01:09;16.26;64.76
65207;SHT31;58477;48.072;11.970;2022-08-11T01:04:45;16.20;65.21
65207;SHT31;58477;48.072;11.970;2022-08-11T01:07:03;16.18;65.15
65207;SHT31;58477;48.072;11.970;2022-08-11T01:12:26;15.97;66.11
65207;SHT31;58477;48.072;11.970;2022-08-11T01:39:08;15.57;67.25
65207;SHT31;58477;48.072;11.970;2022-08-11T01:45:14;15.55;67.41
65207;SHT31;58477;48.072;11.970;2022-08-11T01:48:07;15.47;67.80
65207;SHT31;58477;48.072;11.970;2022-08-11T01:53:51;15.53;67.52
65207;SHT31;58477;48.072;11.970;2022-08-11T02:02:09;15.57;67.32
65207;SHT31;58477;48.072;11.970;2022-08-11T02:04:59;15.59;67.43
65207;SHT31;58477;48.072;11.970;2022-08-11T02:10:32;15.58;67.57
65207;SHT31;58477;48.072;11.970;2022-08-11T02:14:01;15.51;67.82
65207;SHT31;58477;48.072;11.970;2022-08-11T02:19:12;15.40;68.06
65207;SHT31;58477;48.072;11.970;2022-08-11T02:22:22;15.26;68.56
65207;SHT31;58477;48.072;11.970;2022-08-11T02:25:19;15.28;68.42
65207;SHT31;58477;48.072;11.970;2022-08-11T02:27:58;15.24;68.53
65207;SHT31;58477;48.072;11.970;2022-08-11T02:30:29;15.31;68.32
65207;SHT31;58477;48.072;11.970;2022-08-11T02:33:16;15.19;68.72
65207;SHT31;58477;48.072;11.970;2022-08-11T02:35:57;15.28;68.42
65207;SHT31;58477;48.072;11.970;2022-08-11T02:44:16;15.16;68.79
65207;SHT31;58477;48.072;11.970;2022-08-11T02:47:07;15.14;68.88
65207;SHT31;58477;48.072;11.970;2022-08-11T02:52:56;15.20;68.77
65207;SHT31;58477;48.072;11.970;2022-08-11T02:58:10;15.13;68.95
65207;SHT31;58477;48.072;11.970;2022-08-11T03:01:09;15.04;69.74
65207;SHT31;58477;48.072;11.970;2022-08-11T03:03:49;15.06;69.24
65207;SHT31;58477;48.072;11.970;2022-08-11T03:06:37;15.04;69.29
65207;SHT31;58477;48.072;11.970;2022-08-11T03:11:48;14.94;69.63
65207;SHT31;58477;48.072;11.970;2022-08-11T03:14:47;14.90;70.06
65207;SHT31;58477;48.072;11.970;2022-08-11T03:17:45;14.94;70.00
65207;SHT31;58477;48.072;11.970;2022-08-11T03:20:33;14.81;69.93
65207;SHT31;58477;48.072;11.970;2022-08-11T03:29:00;14.56;70.64
65207;SHT31;58477;48.072;11.970;2022-08-11T03:31:33;14.65;70.69
65207;SHT31;58477;48.072;11.970;2022-08-11T03:34:06;14.70;70.68
65207;SHT31;58477;48.072;11.970;2022-08-11T03:42:25;14.62;71.06
65207;SHT31;58477;48.072;11.970;2022-08-11T03:48:22;14.59;70.84
65207;SHT31;58477;48.072;11.970;2022-08-11T03:51:12;14.52;71.00
65207;SHT31;58477;48.072;11.970;2022-08-11T03:54:59;14.52;70.89
65207;SHT31;58477;48.072;11.970;2022-08-11T04:13:32;14.40;71.35
65207;SHT31;58477;48.072;11.970;2022-08-11T04:16:29;14.49;71.09
65207;SHT31;58477;48.072;11.970;2022-08-11T04:22:14;14.40;71.37
65207;SHT31;58477;48.072;11.970;2022-08-11T04:27:33;14.50;71.07
65207;SHT31;58477;48.072;11.970;2022-08-11T04:30:22;14.53;71.06
65207;SHT31;58477;48.072;11.970;2022-08-11T04:39:15;14.63;70.68
65207;SHT31;58477;48.072;11.970;2022-08-11T04:45:24;14.75;70.70
65207;SHT31;58477;48.072;11.970;2022-08-11T04:48:04;14.70;70.73
65207;SHT31;58477;48.072;11.970;2022-08-11T04:57:46;14.86;70.42
65207;SHT31;58477;48.072;11.970;2022-08-11T05:00:51;14.84;70.62
65207;SHT31;58477;48.072;11.970;2022-08-11T05:04:02;14.90;70.53
65207;SHT31;58477;48.072;11.970;2022-08-11T05:07:40;14.99;70.44
65207;SHT31;58477;48.072;11.970;2022-08-11T05:13:02;15.33;69.57
65207;SHT31;58477;48.072;11.970;2022-08-11T05:15:50;16.63;66.84
65207;SHT31;58477;48.072;11.970;2022-08-11T05:18:47;17.64;63.96
65207;SHT31;58477;48.072;11.970;2022-08-11T05:21:33;17.38;64.14
65207;SHT31;58477;48.072;11.970;2022-08-11T05:27:14;18.34;61.90
65207;SHT31;58477;48.072;11.970;2022-08-11T05:30:06;18.09;62.08
65207;SHT31;58477;48.072;11.970;2022-08-11T05:33:29;17.64;63.55
65207;SHT31;58477;48.072;11.970;2022-08-11T05:36:22;18.21;62.32
65207;SHT31;58477;48.072;11.970;2022-08-11T05:39:04;18.25;62.06
65207;SHT31;58477;48.072;11.970;2022-08-11T05:41:56;18.86;61.63
65207;SHT31;58477;48.072;11.970;2022-08-11T05:44:44;18.60;61.33
65207;SHT31;58477;48.072;11.970;2022-08-11T05:47:29;18.47;61.35
65207;SHT31;58477;48.072;11.970;2022-08-11T05:50:14;18.17;62.52
65207;SHT31;58477;48.072;11.970;2022-08-11T05:53:02;17.79;63.50
65207;SHT31;58477;48.072;11.970;2022-08-11T05:55:47;17.67;63.61
65207;SHT31;58477;48.072;11.970;2022-08-11T05:58:40;17.74;63.51
65207;SHT31;58477;48.072;11.970;2022-08-11T06:01:07;17.86;63.25
65207;SHT31;58477;48.072;11.970;2022-08-11T06:03:33;18.19;62.56
65207;SHT31;58477;48.072;11.970;2022-08-11T06:06:24;18.36;62.03
65207;SHT31;58477;48.072;11.970;2022-08-11T06:08:54;18.84;61.11
65207;SHT31;58477;48.072;11.970;2022-08-11T06:11:20;19.71;58.78
65207;SHT31;58477;48.072;11.970;2022-08-11T06:13:46;20.22;57.10
65207;SHT31;58477;48.072;11.970;2022-08-11T06:16:13;21.27;55.25
65207;SHT31;58477;48.072;11.970;2022-08-11T06:18:45;21.41;54.54
65207;SHT31;58477;48.072;11.970;2022-08-11T06:21:11;20.97;55.84
65207;SHT31;58477;48.072;11.970;2022-08-11T06:23:38;21.08;55.88
65207;SHT31;58477;48.072;11.970;2022-08-11T06:26:09;21.01;56.28
65207;SHT31;58477;48.072;11.970;2022-08-11T06:28:36;21.44;54.86
65207;SHT31;58477;48.072;11.970;2022-08-11T06:31:20;20.60;56.59
65207;SHT31;58477;48.072;11.970;2022-08-11T06:41:56;21.86;53.99
65207;SHT31;58477;48.072;11.970;2022-08-11T06:44:39;22.39;52.60
65207;SHT31;58477;48.072;11.970;2022-08-11T06:47:10;22.37;52.10
65207;SHT31;58477;48.072;11.970;2022-08-11T06:49:42;22.06;52.68
65207;SHT31;58477;48.072;11.970;2022-08-11T06:52:46;22.64;52.19
65207;SHT31;58477;48.072;11.970;2022-08-11T06:55:22;22.64;51.56
65207;SHT31;58477;48.072;11.970;2022-08-11T06:58:16;22.54;51.14
65207;SHT31;58477;48.072;11.970;2022-08-11T07:01:08;22.07;53.12
65207;SHT31;58477;48.072;11.970;2022-08-11T07:03:42;22.14;52.03
65207;SHT31;58477;48.072;11.970;2022-08-11T07:06:27;22.23;52.44
65207;SHT31;58477;48.072;11.970;2022-08-11T07:09:13;22.43;51.92
65207;SHT31;58477;48.072;11.970;2022-08-11T07:15:10;24.13;48.13
65207;SHT31;58477;48.072;11.970;2022-08-11T07:17:55;23.69;48.19
65207;SHT31;58477;48.072;11.970;2022-08-11T07:20:43;24.19;48.14
65207;SHT31;58477;48.072;11.970;2022-08-11T07:23:30;24.19;47.72
65207;SHT31;58477;48.072;11.970;2022-08-11T07:26:18;23.58;49.39
65207;SHT31;58477;48.072;11.970;2022-08-11T07:29:06;23.89;48.48
65207;SHT31;58477;48.072;11.970;2022-08-11T07:31:36;24.12;48.21
65207;SHT31;58477;48.072;11.970;2022-08-11T07:34:29;24.56;47.90
65207;SHT31;58477;48.072;11.970;2022-08-11T07:36:59;24.88;46.63
65207;SHT31;58477;48.072;11.970;2022-08-11T07:39:26;24.37;47.53
65207;SHT31;58477;48.072;11.970;2022-08-11T07:41:55;24.54;47.43
65207;SHT31;58477;48.072;11.970;2022-08-11T07:44:23;25.05;47.49
65207;SHT31;58477;48.072;11.970;2022-08-11T07:46:51;25.66;46.14
65207;SHT31;58477;48.072;11.970;2022-08-11T07:49:37;25.34;46.35
65207;SHT31;58477;48.072;11.970;2022-08-11T07:52:24;25.61;45.70
65207;SHT31;58477;48.072;11.970;2022-08-11T07:55:21;25.86;45.98
65207;SHT31;58477;48.072;11.970;2022-08-11T07:57:46;25.15;45.94
65207;SHT31;58477;48.072;11.970;2022-08-11T08:00:49;25.17;46.65
65207;SHT31;58477;48.072;11.970;2022-08-11T08:03:34;25.83;45.20
65207;SHT31;58477;48.072;11.970;2022-08-11T08:06:19;26.47;44.75
65207;SHT31;58477;48.072;11.970;2022-08-11T08:09:05;26.47;44.08
65207;SHT31;58477;48.072;11.970;2022-08-11T08:11:50;26.17;45.20
65207;SHT31;58477;48.072;11.970;2022-08-11T08:14:35;26.64;43.85
65207;SHT31;58477;48.072;11.970;2022-08-11T08:17:20;26.68;43.90
65207;SHT31;58477;48.072;11.970;2022-08-11T08:20:05;26.41;44.62
65207;SHT31;58477;48.072;11.970;2022-08-11T08:22:34;27.24;42.90
65207;SHT31;58477;48.072;11.970;2022-08-11T08:25:00;27.04;42.81
65207;SHT31;58477;48.072;11.970;2022-08-11T08:27:27;27.61;43.06
65207;SHT31;58477;48.072;11.970;2022-08-11T08:29:53;27.25;42.68
65207;SHT31;58477;48.072;11.970;2022-08-11T08:32:39;26.47;43.73
65207;SHT31;58477;48.072;11.970;2022-08-11T08:35:06;26.17;44.58
65207;SHT31;58477;48.072;11.970;2022-08-11T08:37:32;27.02;42.99
65207;SHT31;58477;48.072;11.970;2022-08-11T08:39:58;27.22;41.84
65207;SHT31;58477;48.072;11.970;2022-08-11T08:42:30;26.94;42.47
65207;SHT31;58477;48.072;11.970;2022-08-11T08:45:05;27.19;42.54
65207;SHT31;58477;48.072;11.970;2022-08-11T08:47:36;27.88;41.83
65207;SHT31;58477;48.072;11.970;2022-08-11T08:50:13;27.56;40.99
65207;SHT31;58477;48.072;11.970;2022-08-11T08:52:52;27.55;41.68
65207;SHT31;58477;48.072;11.970;2022-08-11T08:55:19;27.32;41.89
65207;SHT31;58477;48.072;11.970;2022-08-11T08:57:47;27.14;41.69
65207;SHT31;58477;48.072;11.970;2022-08-11T09:00:14;27.14;42.17
65207;SHT31;58477;48.072;11.970;2022-08-11T09:02:40;27.67;40.70
65207;SHT31;58477;48.072;11.970;2022-08-11T09:05:06;28.09;41.19
65207;SHT31;58477;48.072;11.970;2022-08-11T09:07:34;28.09;40.49
65207;SHT31;58477;48.072;11.970;2022-08-11T09:10:00;28.17;40.69
65207;SHT31;58477;48.072;11.970;2022-08-11T09:12:28;28.86;39.59
65207;SHT31;58477;48.072;11.970;2022-08-11T09:14:56;28.87;39.66
65207;SHT31;58477;48.072;11.970;2022-08-11T09:17:26;28.48;39.88
65207;SHT31;58477;48.072;11.970;2022-08-11T09:20:05;28.63;39.63
65207;SHT31;58477;48.072;11.970;2022-08-11T09:22:34;27.65;41.93
65207;SHT31;58477;48.072;11.970;2022-08-11T09:25:21;27.96;41.81
65207;SHT31;58477;48.072;11.970;2022-08-11T09:28:09;28.53;40.20
65207;SHT31;58477;48.072;11.970;2022-08-11T09:30:35;28.94;39.05
65207;SHT31;58477;48.072;11.970;2022-08-11T09:33:03;28.63;39.80
65207;SHT31;58477;48.072;11.970;2022-08-11T09:35:33;28.65;39.21
65207;SHT31;58477;48.072;11.970;2022-08-11T09:37:59;29.07;40.20
65207;SHT31;58477;48.072;11.970;2022-08-11T09:40:46;29.11;38.94
65207;SHT31;58477;48.072;11.970;2022-08-11T09:43:13;29.85;38.69
65207;SHT31;58477;48.072;11.970;2022-08-11T09:45:58;30.33;37.53
65207;SHT31;58477;48.072;11.970;2022-08-11T09:48:27;29.70;38.61
65207;SHT31;58477;48.072;11.970;2022-08-11T09:50:55;29.16;38.40
65207;SHT31;58477;48.072;11.970;2022-08-11T09:53:23;28.91;39.28
65207;SHT31;58477;48.072;11.970;2022-08-11T09:55:49;29.14;39.80
65207;SHT31;58477;48.072;11.970;2022-08-11T09:58:15;28.40;40.03
65207;SHT31;58477;48.072;11.970;2022-08-11T10:00:44;28.75;39.59
65207;SHT31;58477;48.072;11.970;2022-08-11T10:03:16;29.04;38.83
65207;SHT31;58477;48.072;11.970;2022-08-11T10:05:52;29.36;38.27
65207;SHT31;58477;48.072;11.970;2022-08-11T10:08:39;29.80;38.08
65207;SHT31;58477;48.072;11.970;2022-08-11T10:11:08;29.28;38.07
65207;SHT31;58477;48.072;11.970;2022-08-11T10:13:40;30.24;38.43
65207;SHT31;58477;48.072;11.970;2022-08-11T10:16:28;30.60;36.54
65207;SHT31;58477;48.072;11.970;2022-08-11T10:18:54;29.04;39.14
65207;SHT31;58477;48.072;11.970;2022-08-11T10:23:58;28.84;38.13
65207;SHT31;58477;48.072;11.970;2022-08-11T10:26:44;29.14;38.84
65207;SHT31;58477;48.072;11.970;2022-08-11T10:29:17;28.81;39.32
65207;SHT31;58477;48.072;11.970;2022-08-11T10:32:02;30.06;37.62
65207;SHT31;58477;48.072;11.970;2022-08-11T10:34:47;29.55;38.72
65207;SHT31;58477;48.072;11.970;2022-08-11T10:37:18;29.49;38.43
65207;SHT31;58477;48.072;11.970;2022-08-11T10:39:45;29.39;37.30
65207;SHT31;58477;48.072;11.970;2022-08-11T10:42:11;29.23;38.64
65207;SHT31;58477;48.072;11.970;2022-08-11T10:44:56;29.46;37.86
65207;SHT31;58477;48.072;11.970;2022-08-11T10:47:24;29.67;38.76
65207;SHT31;58477;48.072;11.970;2022-08-11T10:50:00;30.29;37.33
65207;SHT31;58477;48.072;11.970;2022-08-11T10:52:47;30.90;35.53
65207;SHT31;58477;48.072;11.970;2022-08-11T10:55:33;30.20;36.55
65207;SHT31;58477;48.072;11.970;2022-08-11T10:58:18;29.21;37.44
65207;SHT31;58477;48.072;11.970;2022-08-11T11:01:04;29.75;37.04
65207;SHT31;58477;48.072;11.970;2022-08-11T11:03:30;29.62;38.17
65207;SHT31;58477;48.072;11.970;2022-08-11T11:06:22;30.39;35.60
65207;SHT31;58477;48.072;11.970;2022-08-11T11:09:02;30.80;35.52
65207;SHT31;58477;48.072;11.970;2022-08-11T11:11:34;30.31;35.69
65207;SHT31;58477;48.072;11.970;2022-08-11T11:14:21;30.61;35.46
65207;SHT31;58477;48.072;11.970;2022-08-11T11:17:06;29.72;36.66
65207;SHT31;58477;48.072;11.970;2022-08-11T11:19:41;28.56;37.80
65207;SHT31;58477;48.072;11.970;2022-08-11T11:22:09;28.07;38.04
65207;SHT31;58477;48.072;11.970;2022-08-11T11:37:13;29.69;36.18
65207;SHT31;58477;48.072;11.970;2022-08-11T11:39:40;28.30;38.41
65207;SHT31;58477;48.072;11.970;2022-08-11T11:42:08;28.97;38.07
65207;SHT31;58477;48.072;11.970;2022-08-11T11:44:37;29.65;36.51
65207;SHT31;58477;48.072;11.970;2022-08-11T11:47:04;29.79;36.48
65207;SHT31;58477;48.072;11.970;2022-08-11T11:49:30;29.75;36.78
65207;SHT31;58477;48.072;11.970;2022-08-11T11:51:57;30.16;36.27
65207;SHT31;58477;48.072;11.970;2022-08-11T11:54:28;30.41;35.29
65207;SHT31;58477;48.072;11.970;2022-08-11T11:56:55;30.71;34.75
65207;SHT31;58477;48.072;11.970;2022-08-11T11:59:25;30.21;35.62
65207;SHT31;58477;48.072;11.970;2022-08-11T12:02:12;29.93;35.86
65207;SHT31;58477;48.072;11.970;2022-08-11T12:04:40;29.53;36.38
65207;SHT31;58477;48.072;11.970;2022-08-11T12:07:07;29.04;37.53
65207;SHT31;58477;48.072;11.970;2022-08-11T12:09:53;28.71;37.07
65207;SHT31;58477;48.072;11.970;2022-08-11T12:12:19;28.65;37.59
65207;SHT31;58477;48.072;11.970;2022-08-11T12:15:06;29.04;37.24
65207;SHT31;58477;48.072;11.970;2022-08-11T12:17:33;28.77;37.85
65207;SHT31;58477;48.072;11.970;2022-08-11T12:20:01;29.23;37.41
65207;SHT31;58477;48.072;11.970;2022-08-11T12:22:30;29.35;36.46
65207;SHT31;58477;48.072;11.970;2022-08-11T12:25:15;28.92;36.83
65207;SHT31;58477;48.072;11.970;2022-08-11T12:28:01;28.68;36.56
65207;SHT31;58477;48.072;11.970;2022-08-11T12:30:27;29.55;37.72
65207;SHT31;58477;48.072;11.970;2022-08-11T12:32:53;29.63;35.67
65207;SHT31;58477;48.072;11.970;2022-08-11T12:35:19;29.82;36.40
65207;SHT31;58477;48.072;11.970;2022-08-11T12:37:48;28.87;36.35
65207;SHT31;58477;48.072;11.970;2022-08-11T12:40:18;28.60;37.53
65207;SHT31;58477;48.072;11.970;2022-08-11T12:43:07;28.90;36.60
65207;SHT31;58477;48.072;11.970;2022-08-11T12:45:56;29.58;36.14
65207;SHT31;58477;48.072;11.970;2022-08-11T12:48:26;29.08;36.41
65207;SHT31;58477;48.072;11.970;2022-08-11T12:51:15;29.48;35.48
65207;SHT31;58477;48.072;11.970;2022-08-11T12:56:40;28.78;36.37
65207;SHT31;58477;48.072;11.970;2022-08-11T12:59:25;29.18;36.33
65207;SHT31;58477;48.072;11.970;2022-08-11T13:02:13;28.68;36.42
65207;SHT31;58477;48.072;11.970;2022-08-11T13:04:59;28.54;36.51
65207;SHT31;58477;48.072;11.970;2022-08-11T13:07:26;28.47;37.95
65207;SHT31;58477;48.072;11.970;2022-08-11T13:09:54;28.78;36.73
65207;SHT31;58477;48.072;11.970;2022-08-11T13:12:22;29.00;35.93
65207;SHT31;58477;48.072;11.970;2022-08-11T13:15:09;28.87;36.60
65207;SHT31;58477;48.072;11.970;2022-08-11T13:17:35;29.08;36.09
65207;SHT31;58477;48.072;11.970;2022-08-11T13:20:02;28.74;36.28
65207;SHT31;58477;48.072;11.970;2022-08-11T13:22:29;28.03;37.83
65207;SHT31;58477;48.072;11.970;2022-08-11T13:24:56;28.06;36.93
65207;SHT31;58477;48.072;11.970;2022-08-11T13:27:22;28.23;36.88
65207;SHT31;58477;48.072;11.970;2022-08-11T13:29:49;28.60;36.95
65207;SHT31;58477;48.072;11.970;2022-08-11T13:32:19;27.81;37.65
65207;SHT31;58477;48.072;11.970;2022-08-11T13:34:46;28.10;37.18
65207;SHT31;58477;48.072;11.970;2022-08-11T13:37:13;28.04;38.14
65207;SHT31;58477;48.072;11.970;2022-08-11T13:39:41;27.73;37.55
65207;SHT31;58477;48.072;11.970;2022-08-11T13:42:13;27.62;37.09
65207;SHT31;58477;48.072;11.970;2022-08-11T13:44:40;27.32;37.55
65207;SHT31;58477;48.072;11.970;2022-08-11T13:47:07;27.58;36.53
65207;SHT31;58477;48.072;11.970;2022-08-11T13:49:35;27.62;37.29
65207;SHT31;58477;48.072;11.970;2022-08-11T13:52:03;27.65;37.57
65207;SHT31;58477;48.072;11.970;2022-08-11T13:54:31;28.37;36.43
65207;SHT31;58477;48.072;11.970;2022-08-11T13:57:02;28.33;36.52
65207;SHT31;58477;48.072;11.970;2022-08-11T13:59:29;28.33;36.37
65207;SHT31;58477;48.072;11.970;2022-08-11T14:01:57;28.02;36.44
65207;SHT31;58477;48.072;11.970;2022-08-11T14:04:36;28.17;35.99
65207;SHT31;58477;48.072;11.970;2022-08-11T14:07:06;28.51;35.77
65207;SHT31;58477;48.072;11.970;2022-08-11T14:09:35;28.09;37.01
65207;SHT31;58477;48.072;11.970;2022-08-11T14:12:25;28.36;36.17
65207;SHT31;58477;48.072;11.970;2022-08-11T14:15:20;28.68;35.44
65207;SHT31;58477;48.072;11.970;2022-08-11T14:18:08;28.53;34.95
65207;SHT31;58477;48.072;11.970;2022-08-11T14:20:39;28.58;34.42
65207;SHT31;58477;48.072;11.970;2022-08-11T14:23:47;28.41;34.15
65207;SHT31;58477;48.072;11.970;2022-08-11T14:26:14;28.16;35.61
65207;SHT31;58477;48.072;11.970;2022-08-11T14:29:01;28.12;35.07
65207;SHT31;58477;48.072;11.970;2022-08-11T14:31:31;28.17;35.28
65207;SHT31;58477;48.072;11.970;2022-08-11T14:34:00;27.90;36.11
65207;SHT31;58477;48.072;11.970;2022-08-11T14:36:30;28.21;35.58
65207;SHT31;58477;48.072;11.970;2022-08-11T14:39:00;28.87;33.98
65207;SHT31;58477;48.072;11.970;2022-08-11T14:41:26;28.86;34.53
65207;SHT31;58477;48.072;11.970;2022-08-11T14:44:10;28.61;35.62
65207;SHT31;58477;48.072;11.970;2022-08-11T14:46:55;28.24;35.93
65207;SHT31;58477;48.072;11.970;2022-08-11T14:49:35;28.18;36.45
65207;SHT31;58477;48.072;11.970;2022-08-11T14:52:29;28.16;36.34
65207;SHT31;58477;48.072;11.970;2022-08-11T14:54:57;27.97;35.85
65207;SHT31;58477;48.072;11.970;2022-08-11T14:57:41;28.06;35.28
65207;SHT31;58477;48.072;11.970;2022-08-11T15:00:09;28.09;35.76
65207;SHT31;58477;48.072;11.970;2022-08-11T15:02:40;27.82;35.73
65207;SHT31;58477;48.072;11.970;2022-08-11T15:05:26;27.66;35.25
65207;SHT31;58477;48.072;11.970;2022-08-11T15:07:53;27.55;35.72
65207;SHT31;58477;48.072;11.970;2022-08-11T15:10:20;27.48;36.54
65207;SHT31;58477;48.072;11.970;2022-08-11T15:12:47;27.21;35.98
65207;SHT31;58477;48.072;11.970;2022-08-11T15:15:13;27.35;35.76
65207;SHT31;58477;48.072;11.970;2022-08-11T15:18:01;26.87;35.46
65207;SHT31;58477;48.072;11.970;2022-08-11T15:20:28;26.95;35.31
65207;SHT31;58477;48.072;11.970;2022-08-11T15:23:13;26.54;36.43
65207;SHT31;58477;48.072;11.970;2022-08-11T15:26:00;26.74;35.98
65207;SHT31;58477;48.072;11.970;2022-08-11T15:28:30;26.71;36.83
65207;SHT31;58477;48.072;11.970;2022-08-11T15:31:15;26.65;36.54
65207;SHT31;58477;48.072;11.970;2022-08-11T15:34:03;26.87;37.08
65207;SHT31;58477;48.072;11.970;2022-08-11T15:36:49;26.84;36.90
65207;SHT31;58477;48.072;11.970;2022-08-11T15:39:46;26.43;36.19
65207;SHT31;58477;48.072;11.970;2022-08-11T15:42:33;26.48;36.92
65207;SHT31;58477;48.072;11.970;2022-08-11T15:45:23;26.47;37.15
65207;SHT31;58477;48.072;11.970;2022-08-11T15:48:11;26.39;36.51
65207;SHT31;58477;48.072;11.970;2022-08-11T15:50:41;26.13;37.40
65207;SHT31;58477;48.072;11.970;2022-08-11T15:53:31;26.20;38.07
65207;SHT31;58477;48.072;11.970;2022-08-11T15:55:59;26.10;39.09
65207;SHT31;58477;48.072;11.970;2022-08-11T15:58:29;26.23;39.90
65207;SHT31;58477;48.072;11.970;2022-08-11T16:01:18;26.58;39.90
65207;SHT31;58477;48.072;11.970;2022-08-11T16:04:06;26.64;40.17
65207;SHT31;58477;48.072;11.970;2022-08-11T16:06:42;26.63;39.80
65207;SHT31;58477;48.072;11.970;2022-08-11T16:09:09;26.58;40.57
65207;SHT31;58477;48.072;11.970;2022-08-11T16:11:36;26.02;41.36
65207;SHT31;58477;48.072;11.970;2022-08-11T16:14:03;26.03;41.88
65207;SHT31;58477;48.072;11.970;2022-08-11T16:16:50;26.20;40.66
65207;SHT31;58477;48.072;11.970;2022-08-11T16:19:18;25.89;40.84
65207;SHT31;58477;48.072;11.970;2022-08-11T16:21:46;25.96;41.33
65207;SHT31;58477;48.072;11.970;2022-08-11T16:24:16;26.19;40.53
65207;SHT31;58477;48.072;11.970;2022-08-11T16:26:44;26.04;42.00
65207;SHT31;58477;48.072;11.970;2022-08-11T16:29:11;25.97;41.17
65207;SHT31;58477;48.072;11.970;2022-08-11T16:31:37;25.89;40.43
65207;SHT31;58477;48.072;11.970;2022-08-11T16:34:05;25.72;40.87
65207;SHT31;58477;48.072;11.970;2022-08-11T16:36:54;25.73;41.44
65207;SHT31;58477;48.072;11.970;2022-08-11T16:39:40;25.94;40.49
65207;SHT31;58477;48.072;11.970;2022-08-11T16:42:06;25.85;40.69
65207;SHT31;58477;48.072;11.970;2022-08-11T16:44:54;25.86;40.96
65207;SHT31;58477;48.072;11.970;2022-08-11T16:47:40;25.27;40.67
65207;SHT31;58477;48.072;11.970;2022-08-11T16:50:07;25.03;41.25
65207;SHT31;58477;48.072;11.970;2022-08-11T16:52:33;24.77;41.47
65207;SHT31;58477;48.072;11.970;2022-08-11T16:54:59;24.70;41.75
65207;SHT31;58477;48.072;11.970;2022-08-11T16:57:28;24.47;41.96
65207;SHT31;58477;48.072;11.970;2022-08-11T17:00:15;24.27;42.42
65207;SHT31;58477;48.072;11.970;2022-08-11T17:02:45;24.36;42.71
65207;SHT31;58477;48.072;11.970;2022-08-11T17:05:33;24.19;42.88
65207;SHT31;58477;48.072;11.970;2022-08-11T17:08:25;24.13;42.67
65207;SHT31;58477;48.072;11.970;2022-08-11T17:11:10;24.12;42.41
65207;SHT31;58477;48.072;11.970;2022-08-11T17:14:00;23.96;43.33
65207;SHT31;58477;48.072;11.970;2022-08-11T17:16:35;23.88;43.31
65207;SHT31;58477;48.072;11.970;2022-08-11T17:19:10;23.79;43.03
65207;SHT31;58477;48.072;11.970;2022-08-11T17:21:42;23.76;43.48
65207;SHT31;58477;48.072;11.970;2022-08-11T17:24:29;23.59;43.23
65207;SHT31;58477;48.072;11.970;2022-08-11T17:26:56;23.66;43.62
65207;SHT31;58477;48.072;11.970;2022-08-11T17:29:36;23.69;43.63
65207;SHT31;58477;48.072;11.970;2022-08-11T17:32:05;23.51;44.37
65207;SHT31;58477;48.072;11.970;2022-08-11T17:34:55;23.37;44.03
65207;SHT31;58477;48.072;11.970;2022-08-11T17:37:41;23.19;43.93
65207;SHT31;58477;48.072;11.970;2022-08-11T17:40:10;23.10;44.38
65207;SHT31;58477;48.072;11.970;2022-08-11T17:42:37;23.12;44.25
65207;SHT31;58477;48.072;11.970;2022-08-11T17:45:23;23.07;44.32
65207;SHT31;58477;48.072;11.970;2022-08-11T17:48:25;22.94;44.57
65207;SHT31;58477;48.072;11.970;2022-08-11T17:51:07;22.90;44.93
65207;SHT31;58477;48.072;11.970;2022-08-11T17:53:37;22.73;45.02
65207;SHT31;58477;48.072;11.970;2022-08-11T17:56:24;22.73;44.64
65207;SHT31;58477;48.072;11.970;2022-08-11T17:59:08;22.54;45.85
65207;SHT31;58477;48.072;11.970;2022-08-11T18:01:53;22.57;45.14
65207;SHT31;58477;48.072;11.970;2022-08-11T18:04:40;22.39;45.39
65207;SHT31;58477;48.072;11.970;2022-08-11T18:07:07;22.36;45.51
65207;SHT31;58477;48.072;11.970;2022-08-11T18:09:52;22.21;45.98
65207;SHT31;58477;48.072;11.970;2022-08-11T18:12:36;22.14;46.07
65207;SHT31;58477;48.072;11.970;2022-08-11T18:15:20;22.07;46.02
65207;SHT31;58477;48.072;11.970;2022-08-11T18:18:05;21.96;46.37
65207;SHT31;58477;48.072;11.970;2022-08-11T18:20:48;21.86;46.61
65207;SHT31;58477;48.072;11.970;2022-08-11T18:23:33;21.75;46.73
65207;SHT31;58477;48.072;11.970;2022-08-11T18:26:19;21.82;47.27
65207;SHT31;58477;48.072;11.970;2022-08-11T18:29:06;21.79;46.29
65207;SHT31;58477;48.072;11.970;2022-08-11T18:31:52;21.66;46.78
65207;SHT31;58477;48.072;11.970;2022-08-11T18:34:39;21.65;46.65
65207;SHT31;58477;48.072;11.970;2022-08-11T18:37:28;21.56;47.10
65207;SHT31;58477;48.072;11.970;2022-08-11T18:40:19;21.48;46.65
65207;SHT31;58477;48.072;11.970;2022-08-11T18:43:06;21.38;46.94
65207;SHT31;58477;48.072;11.970;2022-08-11T18:45:52;21.42;47.90
65207;SHT31;58477;48.072;11.970;2022-08-11T18:48:46;21.46;47.59
65207;SHT31;58477;48.072;11.970;2022-08-11T18:51:32;21.38;48.06
65207;SHT31;58477;48.072;11.970;2022-08-11T18:54:17;21.35;48.95
65207;SHT31;58477;48.072;11.970;2022-08-11T18:57:05;21.32;49.24
65207;SHT31;58477;48.072;11.970;2022-08-11T18:59:52;21.21;49.33
65207;SHT31;58477;48.072;11.970;2022-08-11T19:02:38;21.18;48.50
65207;SHT31;58477;48.072;11.970;2022-08-11T19:05:23;21.12;48.94